PDT,Max TemperatureF,Mean TemperatureF,Min TemperatureF,Max Dew PointF,MeanDew PointF,Min DewpointF,Max Humidity, Mean Humidity, Min Humidity, Max Sea Level PressureIn, Mean Sea Level PressureIn, Min Sea Level PressureIn, Max VisibilityMiles, Mean VisibilityMiles, Min VisibilityMiles, Max Wind SpeedMPH, Mean Wind SpeedMPH, Max Gust SpeedMPH,PrecipitationIn, CloudCover, Events, WindDirDegrees
2013-5-1,69,50,32,37,32,27,87,53,20,30.55,30.51,30.48,10,10,10,12,3,,0.00,0,,330
2013-5-2,78,58,39,41,35,30,81,45,17,30.51,30.40,30.29,10,10,9,14,4,21,0.00,0,,344
2013-5-3,77,62,46,45,38,32,66,42,24,30.34,30.27,30.17,10,10,10,16,7,24,0.00,0,,335
2013-5-4,82,65,48,48,42,37,76,44,23,30.17,30.07,29.92,10,10,10,18,6,25,0.00,0,,337
2013-5-5,87,66,44,46,42,37,81,48,17,29.96,29.84,29.71,10,10,8,9,1,,0.00,0,,286
2013-5-6,78,62,46,54,47,41,82,62,34,29.91,29.84,29.80,10,10,10,8,2,,0.00,0,,292
2013-5-7,66,60,53,50,47,45,77,68,52,30.06,29.98,29.91,10,10,10,10,4,16,0.00,4,,278
2013-5-8,69,61,53,52,47,45,77,68,53,30.19,30.12,30.07,10,10,10,8,3,,0.00,5,,280
2013-5-9,75,63,51,54,49,46,82,68,44,30.22,30.17,30.10,10,10,5,9,4,16,0.00,4,,296
2013-5-10,77,62,48,55,49,45,87,67,44,30.23,30.18,30.12,10,9,1,8,4,,0.00,1,,317
2013-5-11,80,66,53,57,51,46,77,63,36,30.24,30.12,30.03,10,10,9,9,3,17,0.00,0,,279
2013-5-12,69,64,59,57,55,54,88,75,64,30.12,30.09,30.05,10,10,7,10,2,,0.01,7,,164
2013-5-13,66,56,46,55,49,37,94,73,49,30.24,30.11,30.01,10,10,10,0,0,,0.03,6,,-1
2013-5-14,66,54,42,43,40,36,87,60,34,30.26,30.20,30.12,10,10,10,,,,0.03,1,,-1
2013-5-15,59,52,44,48,45,39,87,75,63,30.14,30.09,30.03,10,10,7,,,,0.01,6,,-1
2013-5-16,69,60,51,52,49,48,88,75,46,30.03,29.97,29.92,10,10,6,10,4,20,0.37,7,,201
2013-5-17,62,55,48,50,48,45,93,78,52,30.12,30.04,30.00,10,10,6,,,,0.08,7,,-1
2013-5-18,59,54,50,48,47,45,88,76,63,30.30,30.18,30.11,10,10,10,4,2,,0.04,8,,150
2013-5-19,62,56,50,50,46,43,88,70,52,30.43,30.38,30.30,10,10,3,9,5,,0.07,6,,292
2013-5-20,69,58,48,48,44,41,82,65,35,30.39,30.17,29.95,10,10,10,8,3,,0.00,5,,308
2013-5-21,53,50,46,46,42,39,87,78,62,29.97,29.90,29.85,10,10,5,14,3,21,0.35,8,,260
2013-5-22,48,46,44,45,41,37,87,82,71,29.97,29.94,29.92,10,10,4,12,7,16,0.91,8,,143
2013-5-23,51,48,44,46,44,41,93,84,76,30.01,29.99,29.95,10,10,5,12,5,18,1.04,8,,145
2013-5-24,57,52,48,48,45,45,87,80,63,30.10,30.04,29.97,10,10,7,15,5,22,0.37,8,,148
2013-5-25,64,54,44,48,45,43,93,75,49,30.09,30.03,29.96,10,10,10,12,2,,0.08,7,,201
2013-5-26,64,58,51,54,50,46,94,80,56,30.02,29.99,29.96,10,9,2,12,2,21,0.27,8,,151
2013-5-27,62,56,51,55,50,46,88,80,68,29.99,29.81,29.73,10,10,5,16,5,24,0.38,8,,152
2013-5-28,60,56,51,52,48,46,88,75,63,29.93,29.87,29.78,10,10,3,4,2,,0.36,8,,330
2013-5-29,59,54,50,50,47,45,88,79,63,30.06,29.84,29.65,10,9,2,8,3,,0.74,8,,315
2013-5-30,62,55,48,50,47,45,88,78,59,30.28,30.16,30.07,10,10,3,10,3,,0.26,8,,150
2013-5-31,66,57,48,48,45,43,93,68,43,30.35,30.30,30.25,10,10,9,9,4,,0.11,5,,312